Time;durP1;ratioP1;P1;durP2;ratioP2;P2;SDS_P1;SDS_P2;PMS_P1;PMS_P2;Temp;Humidity;BMP_temperature;BMP_pressure;BME280_temperature;BME280_humidity;BME280_pressure;Samples;Min_cycle;Max_cycle;Signal;HPM_P1;HPM_P2
2021/06/16 00:02:05;;;;;;;4.93;2.60;;;;;;;15.78;87.60;101353.72;4966935;28;20043;-73
2021/06/16 00:04:31;;;;;;;7.20;2.92;;;;;;;15.68;87.80;101345.47;4973102;28;20031;-73
2021/06/16 00:06:57;;;;;;;5.15;2.60;;;;;;;15.81;87.95;101339.41;4973047;28;20042;-73
2021/06/16 00:09:22;;;;;;;7.18;2.63;;;;;;;15.88;87.31;101347.59;4966146;28;20027;-73
2021/06/16 00:11:49;;;;;;;8.80;3.30;;;;;;;15.83;87.02;101353.34;4974141;28;20384;-73
2021/06/16 00:14:16;;;;;;;8.57;2.80;;;;;;;15.87;87.09;101350.69;4979665;28;20035;-73
2021/06/16 00:16:42;;;;;;;5.22;2.65;;;;;;;15.46;89.06;101349.88;4973141;28;20507;-73
2021/06/16 00:19:07;;;;;;;5.85;2.78;;;;;;;15.30;89.46;101357.38;5003082;23;20053;-75
2021/06/16 00:21:33;;;;;;;9.57;2.58;;;;;;;15.46;88.71;101351.78;5000327;28;20121;-75
2021/06/16 00:23:59;;;;;;;6.28;2.58;;;;;;;15.45;88.88;101350.25;4980251;28;20082;-75
2021/06/16 00:26:24;;;;;;;5.20;2.60;;;;;;;15.21;89.15;101344.09;4990768;28;20513;-74
2021/06/16 00:28:50;;;;;;;7.97;2.78;;;;;;;15.24;89.85;101339.88;4987951;28;20399;-74
2021/06/16 00:31:15;;;;;;;6.25;2.55;;;;;;;15.28;90.03;101340.69;4990421;28;20148;-74
2021/06/16 00:33:40;;;;;;;7.20;2.67;;;;;;;14.97;91.60;101332.91;4975981;28;20061;-74
2021/06/16 00:36:06;;;;;;;8.50;2.85;;;;;;;15.19;90.55;101343.66;4994202;28;20113;-74
2021/06/16 00:38:32;;;;;;;6.63;2.90;;;;;;;15.07;91.09;101337.72;4983288;28;20100;-75
2021/06/16 00:40:57;;;;;;;6.55;2.75;;;;;;;14.80;92.49;101339.66;4992712;28;20026;-74
2021/06/16 00:43:23;;;;;;;7.47;2.55;;;;;;;15.02;91.96;101341.50;4959834;28;20121;-74
2021/06/16 00:45:48;;;;;;;4.97;2.53;;;;;;;14.81;92.14;101333.09;4993614;28;20486;-74
2021/06/16 00:48:14;;;;;;;5.75;2.45;;;;;;;14.57;93.88;101332.72;4984584;28;20027;-75
2021/06/16 00:50:40;;;;;;;6.38;2.45;;;;;;;14.61;94.39;101333.56;4991913;28;20532;-74
2021/06/16 00:53:07;;;;;;;5.28;2.70;;;;;;;14.83;93.09;101335.44;4993432;28;20038;-75
2021/06/16 00:55:37;;;;;;;5.72;2.75;;;;;;;14.78;92.98;101327.63;4991880;28;20046;-75
2021/06/16 00:58:04;;;;;;;12.60;2.50;;;;;;;14.72;93.05;101329.06;4983214;28;20042;-73
2021/06/16 01:00:40;;;;;;;3.85;2.13;;;;;;;14.74;92.74;101326.78;4991434;28;20412;-73
2021/06/16 01:03:13;;;;;;;8.15;2.70;;;;;;;14.43;93.41;101320.53;4984078;28;20035;-75
2021/06/16 01:05:46;;;;;;;7.72;2.65;;;;;;;14.23;95.35;101323.66;4990008;28;20105;-75
2021/06/16 01:08:17;;;;;;;5.20;2.55;;;;;;;14.25;95.32;101322.16;4968372;28;20053;-74
2021/06/16 01:10:46;;;;;;;4.45;2.83;;;;;;;14.38;95.09;101326.25;4975470;28;20089;-75
2021/06/16 01:13:32;;;;;;;3.78;2.80;;;;;;;14.23;95.01;101327.16;4980695;28;20511;-74
2021/06/16 01:16:15;;;;;;;8.80;2.70;;;;;;;14.17;95.74;101323.16;4988852;28;20029;-74
2021/06/16 01:18:57;;;;;;;6.20;2.83;;;;;;;14.11;94.90;101329.28;4972484;28;20509;-75
2021/06/16 01:21:26;;;;;;;7.90;2.67;;;;;;;14.33;95.10;101333.91;4971546;28;20447;-75
2021/06/16 01:24:01;;;;;;;8.90;2.67;;;;;;;14.01;95.61;101324.44;4992821;28;20073;-75
2021/06/16 01:26:29;;;;;;;6.18;2.72;;;;;;;14.20;95.20;101330.59;4980479;28;20533;-75
2021/06/16 01:29:05;;;;;;;4.47;3.08;;;;;;;14.08;95.65;101319.94;4991920;28;20084;-74
2021/06/16 01:31:32;;;;;;;4.78;2.90;;;;;;;14.04;95.74;101321.78;4972305;28;20038;-74
2021/06/16 01:33:59;;;;;;;7.10;3.70;;;;;;;14.05;95.83;101326.06;4984215;28;20085;-75
2021/06/16 01:36:26;;;;;;;6.85;3.38;;;;;;;14.03;95.48;101322.16;4978584;28;20181;-74
2021/06/16 01:38:52;;;;;;;8.02;3.53;;;;;;;14.13;96.06;101324.28;4984062;28;20026;-75
2021/06/16 01:41:19;;;;;;;7.65;3.20;;;;;;;14.26;94.46;101315.59;4992245;28;20519;-73
2021/06/16 01:43:47;;;;;;;8.27;2.90;;;;;;;14.35;94.37;101313.44;4992737;28;20030;-73
2021/06/16 01:46:13;;;;;;;5.70;2.97;;;;;;;14.23;94.45;101310.88;4984562;28;20718;-74
2021/06/16 01:48:40;;;;;;;5.80;2.88;;;;;;;14.26;93.90;101310.19;4988223;28;20022;-74
2021/06/16 01:51:08;;;;;;;6.63;2.88;;;;;;;14.18;94.59;101316.63;4991031;28;20044;-74
2021/06/16 01:53:36;;;;;;;5.57;3.22;;;;;;;14.28;94.10;101313.34;4974904;28;20097;-74
2021/06/16 01:56:02;;;;;;;7.13;2.88;;;;;;;13.99;94.78;101313.19;4985007;28;20454;-73
2021/06/16 01:58:28;;;;;;;4.85;2.92;;;;;;;14.09;94.67;101320.72;4981816;28;20106;-74
2021/06/16 02:00:56;;;;;;;7.32;2.88;;;;;;;14.04;94.89;101313.66;4989383;28;20048;-74
2021/06/16 02:03:22;;;;;;;8.75;3.20;;;;;;;14.10;94.33;101319.56;4992577;28;20034;-74
2021/06/16 02:05:47;;;;;;;5.55;2.95;;;;;;;14.14;94.86;101321.19;4970397;28;20038;-74
2021/06/16 02:08:21;;;;;;;8.27;2.97;;;;;;;14.21;94.13;101317.81;4986642;28;20022;-74
2021/06/16 02:10:49;;;;;;;7.00;3.13;;;;;;;14.00;94.29;101334.50;4977739;28;20113;-73
2021/06/16 02:13:21;;;;;;;4.88;3.35;;;;;;;13.82;95.92;101327.97;4984540;28;20038;-74
2021/06/16 02:15:54;;;;;;;7.10;2.90;;;;;;;13.89;95.32;101328.13;4971332;28;20052;-74
2021/06/16 02:18:23;;;;;;;3.03;2.78;;;;;;;13.62;95.86;101320.25;4991211;28;20048;-74
2021/06/16 02:20:49;;;;;;;7.22;3.20;;;;;;;13.74;95.70;101320.09;4989081;28;20038;-74
2021/06/16 02:23:15;;;;;;;7.28;3.25;;;;;;;13.73;96.70;101323.94;4974093;28;20113;-74
2021/06/16 02:25:41;;;;;;;6.43;3.10;;;;;;;13.59;96.44;101319.03;4974002;28;20030;-74
2021/06/16 02:28:07;;;;;;;5.10;2.78;;;;;;;13.65;96.15;101314.91;4983719;28;20054;-74
2021/06/16 02:30:33;;;;;;;8.00;3.17;;;;;;;13.49;95.83;101314.22;4989257;28;20057;-74
2021/06/16 02:32:58;;;;;;;6.07;3.30;;;;;;;13.35;97.62;101313.94;4973944;28;20418;-73
2021/06/16 02:35:24;;;;;;;6.75;3.20;;;;;;;13.32;97.48;101314.63;4988785;28;20038;-74
2021/06/16 02:37:53;;;;;;;3.58;3.28;;;;;;;13.39;98.23;101314.81;4991051;28;20041;-74
2021/06/16 02:40:20;;;;;;;5.88;3.55;;;;;;;13.47;96.94;101322.69;4990879;28;20042;-74
2021/06/16 02:42:49;;;;;;;8.60;4.05;;;;;;;13.38;97.50;101315.91;4984905;28;20077;-74
2021/06/16 02:45:17;;;;;;;9.73;4.18;;;;;;;13.44;97.31;101309.09;4990217;28;20061;-74
2021/06/16 02:47:50;;;;;;;7.50;4.30;;;;;;;13.53;96.78;101315.84;4985239;28;20515;-73
2021/06/16 02:50:19;;;;;;;7.50;4.20;;;;;;;13.60;96.50;101315.19;4987966;28;20035;-73
2021/06/16 02:52:47;;;;;;;9.20;4.25;;;;;;;13.60;96.33;101307.09;4990869;28;20399;-74
2021/06/16 02:55:13;;;;;;;7.80;3.40;;;;;;;13.67;95.69;101317.25;4991112;28;20525;-74
2021/06/16 02:57:42;;;;;;;8.02;3.97;;;;;;;13.38;96.36;101319.41;4983309;28;20030;-73
2021/06/16 03:00:10;;;;;;;5.22;3.38;;;;;;;13.29;96.75;101310.75;4990835;28;20034;-74
2021/06/16 03:02:38;;;;;;;6.13;3.40;;;;;;;13.20;97.09;101301.28;4990720;28;20487;-74
2021/06/16 03:05:06;;;;;;;6.50;3.45;;;;;;;13.10;97.86;101312.66;4990751;28;20049;-74
2021/06/16 03:07:34;;;;;;;5.70;3.20;;;;;;;13.27;97.75;101314.94;4987718;28;20117;-74
2021/06/16 03:10:00;;;;;;;8.70;3.90;;;;;;;13.24;97.07;101307.56;4990085;28;20031;-74
2021/06/16 03:12:27;;;;;;;8.07;3.03;;;;;;;13.21;97.92;101317.16;4982782;28;20117;-74
2021/06/16 03:14:53;;;;;;;9.30;3.60;;;;;;;13.06;98.54;101311.81;4990837;28;20184;-74
2021/06/16 03:17:20;;;;;;;6.72;3.50;;;;;;;13.10;98.01;101313.44;4983973;28;20126;-74
2021/06/16 03:19:48;;;;;;;9.10;3.90;;;;;;;12.90;99.21;101308.31;4983943;28;20120;-74
2021/06/16 03:22:15;;;;;;;5.47;3.88;;;;;;;12.94;98.33;101306.47;4991124;28;20105;-74
2021/06/16 03:24:44;;;;;;;6.60;3.80;;;;;;;13.07;98.25;101306.03;4987714;28;21177;-73
2021/06/16 03:27:10;;;;;;;5.07;3.38;;;;;;;12.99;98.87;101308.94;4980739;28;20129;-73
2021/06/16 03:29:36;;;;;;;4.78;3.50;;;;;;;13.13;98.27;101314.63;4988428;28;20065;-74
2021/06/16 03:32:03;;;;;;;5.35;3.97;;;;;;;13.16;97.41;101308.53;4990527;28;20077;-74
2021/06/16 03:34:29;;;;;;;6.70;3.58;;;;;;;13.29;97.30;101305.34;4966321;28;20041;-74
2021/06/16 03:36:59;;;;;;;4.78;3.38;;;;;;;13.20;97.92;101306.69;4989897;28;20132;-73
2021/06/16 03:39:26;;;;;;;7.25;3.42;;;;;;;13.26;97.94;101306.03;4972310;28;20117;-73
2021/06/16 03:41:52;;;;;;;7.30;3.50;;;;;;;13.20;98.46;101301.28;4974377;28;20049;-73
2021/06/16 03:44:18;;;;;;;6.43;3.60;;;;;;;13.16;98.24;101303.88;4975342;28;20062;-73
2021/06/16 03:46:45;;;;;;;5.50;3.35;;;;;;;13.33;98.07;101305.41;4977450;28;20066;-72
2021/06/16 03:49:14;;;;;;;9.68;3.58;;;;;;;13.26;98.41;101310.66;4985047;28;20570;-73
2021/06/16 03:51:40;;;;;;;6.25;3.38;;;;;;;13.16;98.78;101316.66;4990119;28;20049;-73
2021/06/16 03:54:11;;;;;;;6.38;3.35;;;;;;;13.13;99.38;101303.81;4984834;28;20109;-73
2021/06/16 03:56:41;;;;;;;5.83;3.37;;;;;;;13.26;99.46;101297.91;4984621;28;20034;-73
2021/06/16 03:59:08;;;;;;;6.93;3.08;;;;;;;13.27;100.00;101299.50;4993936;28;20058;-73
2021/06/16 04:01:36;;;;;;;9.07;3.60;;;;;;;13.43;98.78;101302.13;4974120;28;20046;-73
2021/06/16 04:04:08;;;;;;;6.18;3.45;;;;;;;13.53;98.39;101301.53;4988302;28;20061;-73
2021/06/16 04:06:52;;;;;;;7.20;2.92;;;;;;;13.47;98.71;101297.56;4992478;28;20055;-73
2021/06/16 04:09:18;;;;;;;3.88;2.95;;;;;;;13.51;99.24;101301.13;4990017;28;20041;-73
2021/06/16 04:11:44;;;;;;;7.03;3.05;;;;;;;13.53;99.81;101309.63;4969563;28;20038;-73
2021/06/16 04:14:10;;;;;;;5.40;2.72;;;;;;;13.37;99.98;101300.84;4993277;28;20038;-73
2021/06/16 04:16:36;;;;;;;5.85;3.38;;;;;;;13.49;100.00;101303.41;4993781;28;20035;-73
2021/06/16 04:19:04;;;;;;;10.25;3.25;;;;;;;13.59;100.00;101300.09;4984613;28;20029;-72
2021/06/16 04:21:30;;;;;;;8.48;3.17;;;;;;;13.78;99.56;101302.00;4983193;28;20183;-73
2021/06/16 04:23:55;;;;;;;3.95;3.03;;;;;;;13.76;99.93;101302.38;4988473;28;20045;-73
2021/06/16 04:26:22;;;;;;;6.00;3.20;;;;;;;13.93;99.44;101303.81;4992757;28;20038;-73
2021/06/16 04:28:48;;;;;;;6.65;2.97;;;;;;;14.14;98.76;101302.25;4987453;28;20799;-73
2021/06/16 04:31:14;;;;;;;6.93;3.05;;;;;;;14.37;97.45;101305.72;4989953;28;20041;-73
2021/06/16 04:33:39;;;;;;;9.40;3.13;;;;;;;14.34;97.16;101295.59;4980155;28;20041;-73
2021/06/16 04:36:06;;;;;;;5.88;2.58;;;;;;;14.51;96.83;101301.66;4978371;28;20026;-73
2021/06/16 04:38:32;;;;;;;6.95;2.83;;;;;;;14.57;95.90;101297.50;4984838;28;20030;-73
2021/06/16 04:40:58;;;;;;;4.68;2.78;;;;;;;14.61;95.99;101299.13;4975331;28;20042;-73
2021/06/16 04:43:23;;;;;;;5.57;3.00;;;;;;;14.66;95.65;101298.00;4984092;28;20053;-73
2021/06/16 04:45:50;;;;;;;3.55;2.50;;;;;;;14.93;94.18;101305.75;4986268;28;20504;-73
2021/06/16 04:48:15;;;;;;;10.18;2.90;;;;;;;14.86;94.54;101307.59;4992944;28;20026;-73
2021/06/16 04:50:41;;;;;;;4.55;2.60;;;;;;;14.92;95.14;101319.69;4989724;28;20410;-73
2021/06/16 04:53:07;;;;;;;5.68;2.63;;;;;;;15.03;93.54;101313.25;4966633;28;20411;-73
2021/06/16 04:55:32;;;;;;;7.82;2.70;;;;;;;15.23;93.27;101309.22;4987390;28;20038;-73
2021/06/16 04:57:58;;;;;;;5.30;2.30;;;;;;;15.39;92.25;101314.44;4983593;28;20585;-73
2021/06/16 05:00:24;;;;;;;6.57;2.50;;;;;;;15.53;90.81;101311.13;4981532;28;20038;-74
2021/06/16 05:02:59;;;;;;;6.35;2.55;;;;;;;15.58;90.20;101314.28;4984541;28;20038;-74
2021/06/16 05:05:25;;;;;;;8.23;2.53;;;;;;;15.95;88.41;101311.59;4986865;28;20026;-72
2021/06/16 05:07:51;;;;;;;6.10;2.47;;;;;;;15.91;89.48;101308.81;4974563;28;20113;-73
2021/06/16 05:10:16;;;;;;;5.28;2.17;;;;;;;16.10;89.08;101297.72;4984409;28;20125;-75
2021/06/16 05:12:43;;;;;;;3.00;2.35;;;;;;;16.20;90.27;101299.00;4986327;28;20042;-73
2021/06/16 05:15:11;;;;;;;3.05;1.88;;;;;;;17.17;87.96;101304.63;4975395;28;20416;-72
2021/06/16 05:17:38;;;;;;;4.47;2.00;;;;;;;18.49;82.94;101303.28;4988003;28;20045;-75
2021/06/16 05:20:06;;;;;;;2.65;1.33;;;;;;;19.90;75.06;101302.69;4990158;28;20050;-75
2021/06/16 05:22:31;;;;;;;3.40;1.33;;;;;;;20.80;67.22;101298.78;4977572;28;20077;-73
2021/06/16 05:25:00;;;;;;;3.70;1.40;;;;;;;21.60;61.10;101307.97;4986156;28;20042;-74
2021/06/16 05:27:25;;;;;;;3.88;1.20;;;;;;;22.11;59.82;101290.34;4983014;28;20035;-74
2021/06/16 05:29:53;;;;;;;3.50;1.20;;;;;;;22.71;58.27;101292.03;4980475;28;20081;-74
2021/06/16 05:32:19;;;;;;;4.30;1.30;;;;;;;23.19;56.20;101295.75;4975249;28;20113;-74
2021/06/16 05:34:45;;;;;;;3.15;1.00;;;;;;;23.32;53.72;101298.66;4980029;28;20137;-76
2021/06/16 05:37:10;;;;;;;3.67;1.23;;;;;;;23.44;54.81;101297.22;4979322;28;20521;-77
2021/06/16 05:39:36;;;;;;;3.53;1.10;;;;;;;23.74;54.13;101296.91;4982626;28;20052;-76
2021/06/16 05:42:02;;;;;;;3.28;1.20;;;;;;;23.83;53.93;101288.84;4971349;28;20031;-76
2021/06/16 05:44:28;;;;;;;4.72;1.10;;;;;;;24.09;53.39;101287.84;4980399;28;20027;-75
2021/06/16 05:46:53;;;;;;;2.45;1.00;;;;;;;24.33;51.63;101296.69;4973819;28;20053;-76
2021/06/16 05:49:19;;;;;;;4.60;1.20;;;;;;;24.48;51.20;101286.84;4976961;28;20081;-77
2021/06/16 05:51:44;;;;;;;2.55;1.08;;;;;;;24.11;51.38;101291.72;4984302;28;20046;-75
2021/06/16 05:54:10;;;;;;;8.15;1.05;;;;;;;24.27;50.72;101290.16;4990659;28;20072;-77
2021/06/16 05:56:40;;;;;;;4.95;1.00;;;;;;;23.77;51.55;101290.56;4986350;28;20034;-76
2021/06/16 05:59:06;;;;;;;2.58;0.98;;;;;;;24.20;52.28;101284.84;4988833;28;20117;-75
2021/06/16 06:01:32;;;;;;;2.53;1.00;;;;;;;24.40;51.41;101272.47;4989143;28;20563;-77
2021/06/16 06:03:58;;;;;;;2.50;0.82;;;;;;;23.83;51.52;101275.84;4970039;28;20037;-77
2021/06/16 06:06:23;;;;;;;3.67;1.10;;;;;;;24.03;50.79;101273.81;4981554;28;20030;-76
2021/06/16 06:08:49;;;;;;;8.10;1.30;;;;;;;23.88;51.17;101269.06;4990563;28;20049;-76
2021/06/16 06:11:14;;;;;;;3.78;1.10;;;;;;;23.86;51.05;101268.72;4981009;28;20042;-76
2021/06/16 06:13:40;;;;;;;2.17;1.08;;;;;;;24.13;51.92;101258.25;4989133;28;20526;-76
2021/06/16 06:16:06;;;;;;;2.67;1.10;;;;;;;24.37;50.63;101262.31;4983723;28;20030;-76
2021/06/16 06:18:31;;;;;;;2.50;1.17;;;;;;;23.65;52.06;101272.00;5001642;23;20499;-72
2021/06/16 06:20:57;;;;;;;3.05;1.13;;;;;;;23.95;52.25;101272.41;4988742;28;20116;-72
2021/06/16 06:23:22;;;;;;;3.92;1.27;;;;;;;23.91;52.31;101263.47;4985123;28;20655;-75
2021/06/16 06:25:48;;;;;;;5.90;1.65;;;;;;;23.64;53.28;101273.19;4980595;28;20502;-75
2021/06/16 06:28:13;;;;;;;4.10;1.60;;;;;;;23.51;53.28;101262.09;4962338;28;20496;-75
2021/06/16 06:30:40;;;;;;;4.95;1.50;;;;;;;23.43;54.03;101262.66;4963181;28;20042;-75
2021/06/16 06:33:05;;;;;;;1.80;1.13;;;;;;;23.59;55.00;101270.94;4965770;28;20415;-74
2021/06/16 06:35:32;;;;;;;2.78;1.50;;;;;;;23.80;54.70;101268.47;4966993;28;20034;-75
2021/06/16 06:37:57;;;;;;;6.82;1.65;;;;;;;23.28;54.93;101260.22;4980245;28;20035;-74
2021/06/16 06:40:23;;;;;;;3.75;1.60;;;;;;;23.58;56.18;101261.13;4970800;28;20046;-74
2021/06/16 06:42:48;;;;;;;10.32;1.60;;;;;;;24.06;54.95;101261.19;4964933;28;20510;-75
2021/06/16 06:45:14;;;;;;;4.10;1.30;;;;;;;24.13;54.25;101263.75;4958996;28;20027;-75
2021/06/16 06:47:39;;;;;;;3.00;1.20;;;;;;;24.18;55.57;101260.47;4966011;28;20049;-75
2021/06/16 06:50:12;;;;;;;7.88;1.48;;;;;;;24.17;54.46;101256.94;4960831;28;20077;-73
2021/06/16 06:52:37;;;;;;;4.22;1.20;;;;;;;24.01;54.64;101254.19;4969069;28;20054;-72
2021/06/16 06:55:03;;;;;;;12.48;1.65;;;;;;;24.13;53.96;101252.75;4967594;28;20034;-73
2021/06/16 06:57:29;;;;;;;3.67;1.55;;;;;;;24.12;55.03;101251.16;4967405;28;20047;-72
2021/06/16 06:59:54;;;;;;;5.30;1.30;;;;;;;23.88;55.68;101242.34;4970281;28;20035;-72
2021/06/16 07:02:20;;;;;;;9.25;1.42;;;;;;;23.80;55.72;101245.69;4970457;28;20033;-72
2021/06/16 07:04:45;;;;;;;4.65;1.50;;;;;;;23.74;55.39;101245.44;4965162;28;20053;-72
2021/06/16 07:07:11;;;;;;;5.50;1.27;;;;;;;24.06;56.24;101237.16;4954994;28;20031;-72
2021/06/16 07:09:36;;;;;;;5.28;1.42;;;;;;;24.37;55.04;101236.78;4963879;28;20145;-73
2021/06/16 07:12:02;;;;;;;3.47;1.35;;;;;;;24.12;55.28;101234.66;4959852;28;20094;-72
2021/06/16 07:14:28;;;;;;;7.20;1.70;;;;;;;23.76;54.90;101236.72;4962170;28;20050;-72
2021/06/16 07:16:53;;;;;;;5.00;1.40;;;;;;;23.91;55.56;101229.66;4976179;28;20099;-73
2021/06/16 07:19:19;;;;;;;5.53;1.77;;;;;;;23.55;56.88;101237.25;4968537;28;20042;-73
2021/06/16 07:21:44;;;;;;;2.50;1.38;;;;;;;23.87;56.65;101234.47;4976689;28;20034;-72
2021/06/16 07:24:11;;;;;;;3.90;1.45;;;;;;;24.23;55.82;101237.94;4971469;28;20030;-72
2021/06/16 07:26:37;;;;;;;3.45;1.48;;;;;;;24.31;54.32;101233.00;4974355;28;20033;-73
2021/06/16 07:29:03;;;;;;;6.00;1.70;;;;;;;24.17;54.52;101237.69;4967205;28;20057;-72
2021/06/16 07:31:28;;;;;;;2.53;1.42;;;;;;;24.68;53.83;101232.38;4988239;28;20058;-72
2021/06/16 07:33:54;;;;;;;4.38;1.77;;;;;;;24.53;54.11;101231.19;5007083;28;20061;-72
2021/06/16 07:36:19;;;;;;;5.03;1.60;;;;;;;24.89;54.50;101218.00;4990539;28;20058;-73
2021/06/16 07:38:45;;;;;;;4.30;1.70;;;;;;;25.32;53.66;101228.50;4996494;28;20035;-73
2021/06/16 07:41:10;;;;;;;4.88;1.80;;;;;;;25.35;52.17;101233.13;4979693;28;20388;-73
2021/06/16 07:43:36;;;;;;;5.60;1.50;;;;;;;24.85;52.72;101231.09;4973171;28;20058;-73
2021/06/16 07:46:02;;;;;;;3.00;1.60;;;;;;;25.03;53.54;101234.09;4980470;28;20063;-74
2021/06/16 07:48:27;;;;;;;5.82;1.60;;;;;;;24.97;53.10;101222.84;4981952;28;20503;-74
2021/06/16 07:50:53;;;;;;;7.78;1.90;;;;;;;25.43;53.52;101226.22;4968734;28;20050;-74
2021/06/16 07:53:20;;;;;;;4.43;1.67;;;;;;;24.96;52.10;101221.31;4983018;28;20031;-74
2021/06/16 07:55:45;;;;;;;5.20;1.80;;;;;;;25.05;51.92;101226.16;4974294;28;20096;-74
2021/06/16 07:58:11;;;;;;;3.10;1.27;;;;;;;25.19;53.07;101213.91;4980430;28;20486;-74
2021/06/16 08:00:37;;;;;;;2.90;1.20;;;;;;;25.10;51.88;101211.84;4970715;28;20036;-74
2021/06/16 08:03:04;;;;;;;6.10;1.60;;;;;;;25.13;51.96;101221.97;4977276;28;20411;-74
2021/06/16 08:05:29;;;;;;;2.85;1.30;;;;;;;25.65;51.90;101211.28;4976998;28;20069;-74
2021/06/16 08:07:55;;;;;;;4.13;1.40;;;;;;;25.71;49.99;101215.03;4975286;28;20503;-74
2021/06/16 08:10:21;;;;;;;7.05;1.55;;;;;;;25.78;50.14;101205.75;4971062;28;20482;-75
2021/06/16 08:12:46;;;;;;;2.53;1.40;;;;;;;25.90;49.29;101210.44;4978308;28;20051;-74
2021/06/16 08:15:13;;;;;;;5.15;1.40;;;;;;;25.87;48.66;101205.81;4975664;28;20105;-74
2021/06/16 08:17:39;;;;;;;2.38;1.10;;;;;;;26.10;50.65;101202.69;4979741;28;20055;-74
2021/06/16 08:20:06;;;;;;;2.95;1.20;;;;;;;26.41;48.00;101208.28;4971314;28;20118;-74
2021/06/16 08:22:33;;;;;;;4.30;1.10;;;;;;;26.57;47.79;101208.88;4977752;28;20121;-74
2021/06/16 08:25:20;;;;;;;5.18;1.40;;;;;;;26.38;46.66;101198.16;4964837;28;20111;-74
2021/06/16 08:27:46;;;;;;;3.70;1.10;;;;;;;25.95;46.89;101193.31;4917941;29;20044;-74
2021/06/16 08:30:13;;;;;;;2.60;1.10;;;;;;;25.51;48.27;101188.91;4932722;29;20043;-74
2021/06/16 08:32:40;;;;;;;5.07;1.65;;;;;;;25.39;48.77;101197.94;4930428;29;20047;-74
2021/06/16 08:35:06;;;;;;;4.28;1.30;;;;;;;25.59;50.26;101196.50;4929933;29;20639;-74
2021/06/16 08:37:32;;;;;;;6.05;1.83;;;;;;;26.23;50.03;101186.81;4919676;29;20495;-74
2021/06/16 08:39:57;;;;;;;5.20;1.30;;;;;;;26.62;49.94;101186.19;4932930;29;20055;-74
2021/06/16 08:42:28;;;;;;;3.03;1.27;;;;;;;27.01;48.51;101181.19;4928948;29;20182;-74
2021/06/16 08:44:55;;;;;;;3.53;1.83;;;;;;;27.29;46.56;101182.84;4915966;29;20453;-74
2021/06/16 08:47:22;;;;;;;3.80;1.50;;;;;;;27.30;47.11;101187.13;4930102;29;20565;-74
2021/06/16 08:49:48;;;;;;;7.80;1.70;;;;;;;27.04;47.33;101180.28;4908765;29;20208;-74
2021/06/16 08:52:15;;;;;;;4.97;1.80;;;;;;;27.00;47.14;101177.66;4928504;29;20047;-74
2021/06/16 08:54:40;;;;;;;6.22;1.27;;;;;;;27.37;46.97;101181.34;4913263;29;20044;-74
2021/06/16 08:57:06;;;;;;;6.95;1.42;;;;;;;27.47;46.08;101178.13;4930266;29;20114;-74
2021/06/16 08:59:32;;;;;;;5.25;1.60;;;;;;;27.70;45.63;101170.50;4925228;29;20099;-74
2021/06/16 09:01:57;;;;;;;3.50;1.30;;;;;;;28.05;45.01;101169.75;4923651;29;20389;-76
2021/06/16 09:04:49;;;;;;;7.55;1.40;;;;;;;27.95;43.69;101171.00;4944934;28;20056;-74
2021/06/16 09:07:25;;;;;;;2.72;1.20;;;;;;;27.79;43.91;101168.50;4967872;28;20046;-74
2021/06/16 09:10:23;;;;;;;4.88;1.30;;;;;;;28.32;45.33;101164.19;4958834;28;20049;-74
2021/06/16 09:12:56;;;;;;;4.32;1.02;;;;;;;28.36;44.07;101167.59;4946787;28;20104;-74
2021/06/16 09:15:27;;;;;;;2.35;1.13;;;;;;;28.39;43.90;101172.22;4967963;28;20027;-74
2021/06/16 09:18:04;;;;;;;4.82;1.40;;;;;;;28.55;44.07;101162.03;4967193;28;20031;-74
2021/06/16 09:20:45;;;;;;;2.17;1.20;;;;;;;28.42;43.49;101171.28;4975778;28;20038;-74
2021/06/16 09:23:17;;;;;;;4.90;1.30;;;;;;;27.95;43.91;101168.22;4973459;28;20105;-74
2021/06/16 09:25:44;;;;;;;6.15;1.40;;;;;;;27.95;44.53;101165.44;4975726;28;20763;-74
2021/06/16 09:28:11;;;;;;;5.20;1.30;;;;;;;28.38;43.68;101156.81;4980162;28;20065;-74
2021/06/16 09:30:42;;;;;;;3.42;1.38;;;;;;;28.41;43.02;101155.88;4976090;28;20590;-73
2021/06/16 09:33:09;;;;;;;;;;;;;;;28.52;43.39;101158.94;4964622;28;20396;-73
2021/06/16 09:35:38;;;;;;;3.00;1.25;;;;;;;28.73;43.67;101154.44;4973708;28;20143;-74
2021/06/16 09:38:09;;;;;;;3.92;1.50;;;;;;;28.14;43.14;101152.38;4974889;28;20053;-74
2021/06/16 09:40:41;;;;;;;2.75;1.27;;;;;;;28.07;43.45;101144.34;4969609;28;20057;-74
2021/06/16 09:43:13;;;;;;;3.60;1.00;;;;;;;28.46;43.45;101135.06;4968073;28;20573;-74
2021/06/16 09:45:40;;;;;;;3.60;1.25;;;;;;;28.75;44.67;101131.75;4970726;28;20035;-76
2021/06/16 09:48:25;;;;;;;3.92;1.23;;;;;;;29.09;43.63;101123.75;4976617;28;20583;-74
2021/06/16 09:51:06;;;;;;;6.45;1.60;;;;;;;29.51;43.89;101142.34;4969943;28;20042;-77
2021/06/16 09:53:32;;;;;;;4.97;1.75;;;;;;;29.20;43.34;101140.69;4974741;28;20039;-74
2021/06/16 09:56:14;;;;;;;4.72;1.48;;;;;;;28.15;43.45;101131.72;4967449;28;20034;-76
2021/06/16 09:58:40;;;;;;;2.50;1.20;;;;;;;28.19;45.02;101141.44;4969479;28;20034;-76
2021/06/16 10:01:05;;;;;;;4.35;1.60;;;;;;;28.44;44.04;101134.75;4974294;28;20034;-75
2021/06/16 10:03:33;;;;;;;4.63;1.25;;;;;;;28.61;44.31;101135.22;4971905;28;20494;-76
2021/06/16 10:06:15;;;;;;;3.50;1.30;;;;;;;29.18;43.58;101131.28;4968856;28;20100;-74
2021/06/16 10:08:46;;;;;;;2.92;1.40;;;;;;;29.54;43.27;101130.31;4971180;28;20077;-76
2021/06/16 10:11:20;;;;;;;4.50;1.60;;;;;;;29.84;41.97;101121.59;4968991;28;20399;-76
2021/06/16 10:13:48;;;;;;;4.93;1.77;;;;;;;30.08;41.92;101118.78;4969064;28;20408;-75
2021/06/16 10:16:14;;;;;;;4.32;1.30;;;;;;;29.91;41.61;101124.00;4975505;28;20487;-76
2021/06/16 10:18:42;;;;;;;6.88;1.50;;;;;;;29.65;41.17;101113.84;4964431;28;20035;-76
2021/06/16 10:21:10;;;;;;;3.42;1.40;;;;;;;29.38;41.26;101121.13;4959555;28;20037;-76
2021/06/16 10:23:39;;;;;;;2.88;1.60;;;;;;;29.87;42.21;101114.31;4959141;28;20066;-76
2021/06/16 10:26:12;;;;;;;3.90;1.67;;;;;;;30.16;42.13;101114.34;4960432;28;20030;-76
2021/06/16 10:28:41;;;;;;;4.40;1.98;;;;;;;29.80;41.60;101109.91;4970826;28;20443;-74
2021/06/16 10:31:07;;;;;;;5.38;1.55;;;;;;;29.87;42.49;101112.31;4971809;28;20043;-76
2021/06/16 10:33:38;;;;;;;3.85;1.65;;;;;;;29.96;40.29;101100.34;4975899;28;20093;-76
2021/06/16 10:36:15;;;;;;;2.58;1.38;;;;;;;30.20;40.71;101090.69;4969870;28;20030;-72
2021/06/16 10:39:03;;;;;;;5.70;1.73;;;;;;;30.07;40.74;101101.31;4973618;28;20206;-76
2021/06/16 10:41:37;;;;;;;5.47;1.88;;;;;;;30.19;41.55;101097.50;4972539;28;20117;-76
2021/06/16 10:44:20;;;;;;;2.55;1.50;;;;;;;30.21;42.34;101092.22;4964250;28;20424;-76
2021/06/16 10:47:15;;;;;;;8.45;2.00;;;;;;;29.87;42.30;101097.63;4977036;28;20045;-76
2021/06/16 10:49:46;;;;;;;4.53;1.95;;;;;;;29.45;43.60;101097.03;4959189;28;20050;-76
2021/06/16 10:52:14;;;;;;;4.57;2.00;;;;;;;30.15;44.32;101088.56;4961062;28;21532;-76
2021/06/16 10:54:59;;;;;;;7.80;2.67;;;;;;;30.87;43.63;101097.38;4964891;28;20038;-76
2021/06/16 10:57:25;;;;;;;4.30;1.90;;;;;;;30.83;42.19;101100.34;4968148;28;20423;-76
2021/06/16 10:59:52;;;;;;;5.55;2.10;;;;;;;31.13;41.94;101101.00;4966552;28;20381;-76
2021/06/16 11:02:38;;;;;;;4.40;2.17;;;;;;;30.79;41.17;101093.41;4964009;28;20034;-76
2021/06/16 11:05:21;;;;;;;3.60;2.00;;;;;;;30.50;42.12;101091.47;4970692;28;20486;-76
2021/06/16 11:07:46;;;;;;;5.65;2.10;;;;;;;30.80;42.97;101081.81;4959229;28;20499;-76
2021/06/16 11:10:13;;;;;;;4.13;2.10;;;;;;;30.63;41.43;101089.13;4961999;28;20065;-76
2021/06/16 11:12:41;;;;;;;4.38;2.05;;;;;;;30.36;42.75;101081.13;4978214;28;20065;-76
2021/06/16 11:15:08;;;;;;;5.07;2.28;;;;;;;30.87;43.10;101066.75;4970256;28;20035;-76
2021/06/16 11:17:34;;;;;;;5.05;1.90;;;;;;;31.34;42.14;101066.34;4966170;28;20046;-76
2021/06/16 11:20:07;;;;;;;3.67;1.95;;;;;;;31.67;41.76;101055.63;4970618;28;20484;-76
2021/06/16 11:22:44;;;;;;;4.05;2.10;;;;;;;31.36;42.35;101057.53;4961031;28;20415;-76
2021/06/16 11:25:10;;;;;;;6.72;2.42;;;;;;;31.54;41.68;101060.03;4975925;28;20038;-76
2021/06/16 11:27:54;;;;;;;5.15;2.70;;;;;;;30.90;41.35;101060.97;4971896;28;20018;-75
2021/06/16 11:30:53;;;;;;;4.68;2.47;;;;;;;31.17;41.49;101057.03;4959346;28;20094;-75